DAAT METAR and TAF | Updated Today

DAAT METAR

Aguenar – Hadj Bey Akhamok Airport

Observation time: 12 min. ago

DAAT 060800Z VRB02KT CAVOK 16/M07 Q1023

Need help? Read our tutorial on how to read METARs or read the parsed version below.

Aguenar – Hadj Bey Akhamok Airport (DAAT) METAR

  • Weather conditions on Mon, 06 Dec 2021 08:00:00 +0000 (12 min. ago):
  • Present conditions: Dry
  • Clouds: Clear skies
  • Visibility: Greater than 10 km
  • Wind: Variable at 2 knots
  • Temperature: 16 celsius
  • Dew point: -7 celsius
  • Pressure: 1023 millibars
  • Remarks: None


Useful to know...

DAAT TAF

Aguenar – Hadj Bey Akhamok Airport

TAF DAAT 060500Z 0606/0706 35008KT CAVOK BECMG 0610/0613 26010KT BECMG 0620/0623 02008KT
Observation time: 3:12 hr. ago
Need help? Read our tutorial on how to read TAFs or read the parsed version below.

Parsed version of TAF for Aguenar – Hadj Bey Akhamok Airport (DAAT)

  • From 06 December at 06:00 UTC, to day 07 of the month at 06:00 UTC
  • Visibility: Greater than 10 km
  • Wind: 350 degrees at 8
  • Expected to arise soon, from 06 December at 10:00 UTC, to day 06 of the month at 13:00 UTC
  • Wind: 260 degrees at 10
  • Expected to arise soon, from 06 December at 20:00 UTC, to day 06 of the month at 23:00 UTC
  • Wind: 20 degrees at 8

Airports near DAAT

No airports found within 100nm radius.